Terminal Aerodrome Forecast
Issued by NWS

Home | Current Version | Previous Version | Text Only | Print | Product List | Glossary On
Versions: 1 2 3 4 5 6 7 8 9 10 11 12 13 14 15 16 17 18 19 20 21
000
FTUS41 KBTV 020530
TAFMSS
TAF
KMSS 020530Z 0206/0306 22004KT 4SM BR SKC
     FM020800 00000KT 1 1/2SM BR BKN004
     FM021300 24005KT P6SM FEW250=

USA.gov is the U.S. government's official web portal to all federal, state and local government web resources and services.